sensor_id;sensor_type;location;lat;lon;timestamp;temperature;humidity
52058;DHT22;38063;53.210;6.504;2023-03-21T00:02:02;8.50;99.90
52058;DHT22;38063;53.210;6.504;2023-03-21T00:04:28;8.50;99.90
52058;DHT22;38063;53.210;6.504;2023-03-21T00:06:53;8.50;99.90
52058;DHT22;38063;53.210;6.504;2023-03-21T00:09:20;8.50;99.90
52058;DHT22;38063;53.210;6.504;2023-03-21T00:11:46;8.50;99.90
52058;DHT22;38063;53.210;6.504;2023-03-21T00:14:12;8.40;99.90
52058;DHT22;38063;53.210;6.504;2023-03-21T00:16:39;8.50;99.90
52058;DHT22;38063;53.210;6.504;2023-03-21T00:19:05;8.50;99.90
52058;DHT22;38063;53.210;6.504;2023-03-21T00:21:32;8.50;99.90
52058;DHT22;38063;53.210;6.504;2023-03-21T00:24:04;8.50;99.90
52058;DHT22;38063;53.210;6.504;2023-03-21T00:26:30;8.50;99.90
52058;DHT22;38063;53.210;6.504;2023-03-21T00:28:56;8.50;99.90
52058;DHT22;38063;53.210;6.504;2023-03-21T00:31:22;8.50;99.90
52058;DHT22;38063;53.210;6.504;2023-03-21T00:33:48;8.50;99.90
52058;DHT22;38063;53.210;6.504;2023-03-21T00:36:14;8.50;99.90
52058;DHT22;38063;53.210;6.504;2023-03-21T00:38:40;8.50;99.90
52058;DHT22;38063;53.210;6.504;2023-03-21T00:41:08;8.50;99.90
52058;DHT22;38063;53.210;6.504;2023-03-21T00:43:34;8.50;99.90
52058;DHT22;38063;53.210;6.504;2023-03-21T00:46:01;8.50;99.90
52058;DHT22;38063;53.210;6.504;2023-03-21T00:48:27;8.50;99.90
52058;DHT22;38063;53.210;6.504;2023-03-21T00:50:54;8.50;99.90
52058;DHT22;38063;53.210;6.504;2023-03-21T00:53:21;8.70;99.90
52058;DHT22;38063;53.210;6.504;2023-03-21T00:55:47;8.50;99.90
52058;DHT22;38063;53.210;6.504;2023-03-21T00:58:14;8.50;99.90
52058;DHT22;38063;53.210;6.504;2023-03-21T01:00:40;8.60;99.90
52058;DHT22;38063;53.210;6.504;2023-03-21T01:03:07;8.60;99.90
52058;DHT22;38063;53.210;6.504;2023-03-21T01:05:53;8.50;99.90
52058;DHT22;38063;53.210;6.504;2023-03-21T01:08:36;8.50;99.90
52058;DHT22;38063;53.210;6.504;2023-03-21T01:11:09;8.60;99.90
52058;DHT22;38063;53.210;6.504;2023-03-21T01:13:36;8.60;99.90
52058;DHT22;38063;53.210;6.504;2023-03-21T01:16:04;8.70;99.90
52058;DHT22;38063;53.210;6.504;2023-03-21T01:18:31;8.50;99.90
52058;DHT22;38063;53.210;6.504;2023-03-21T01:20:59;8.50;99.90
52058;DHT22;38063;53.210;6.504;2023-03-21T01:23:27;8.70;99.90
52058;DHT22;38063;53.210;6.504;2023-03-21T01:25:55;8.60;99.90
52058;DHT22;38063;53.210;6.504;2023-03-21T01:28:23;8.60;99.90
52058;DHT22;38063;53.210;6.504;2023-03-21T01:30:50;8.50;99.90
52058;DHT22;38063;53.210;6.504;2023-03-21T01:33:17;8.50;99.90
52058;DHT22;38063;53.210;6.504;2023-03-21T01:35:43;8.60;99.90
52058;DHT22;38063;53.210;6.504;2023-03-21T01:38:09;8.50;99.90
52058;DHT22;38063;53.210;6.504;2023-03-21T01:40:35;8.80;99.90
52058;DHT22;38063;53.210;6.504;2023-03-21T01:43:02;8.50;99.90
52058;DHT22;38063;53.210;6.504;2023-03-21T01:48:28;8.60;99.90
52058;DHT22;38063;53.210;6.504;2023-03-21T01:50:54;8.60;99.90
52058;DHT22;38063;53.210;6.504;2023-03-21T01:53:24;8.60;99.90
52058;DHT22;38063;53.210;6.504;2023-03-21T01:55:56;8.60;99.90
52058;DHT22;38063;53.210;6.504;2023-03-21T01:58:23;8.80;99.90
52058;DHT22;38063;53.210;6.504;2023-03-21T02:00:50;8.60;99.90
52058;DHT22;38063;53.210;6.504;2023-03-21T02:03:16;8.60;99.90
52058;DHT22;38063;53.210;6.504;2023-03-21T02:08:21;8.70;99.90
52058;DHT22;38063;53.210;6.504;2023-03-21T02:10:48;8.60;99.90
52058;DHT22;38063;53.210;6.504;2023-03-21T02:13:15;8.60;99.90
52058;DHT22;38063;53.210;6.504;2023-03-21T02:15:48;8.50;99.90
52058;DHT22;38063;53.210;6.504;2023-03-21T02:29:33;8.60;99.90
52058;DHT22;38063;53.210;6.504;2023-03-21T02:35:30;9.00;99.90
52058;DHT22;38063;53.210;6.504;2023-03-21T02:37:45;8.60;99.90
52058;DHT22;38063;53.210;6.504;2023-03-21T02:40:49;8.60;99.90
52058;DHT22;38063;53.210;6.504;2023-03-21T02:43:19;8.60;99.90
52058;DHT22;38063;53.210;6.504;2023-03-21T02:46:16;8.60;99.90
52058;DHT22;38063;53.210;6.504;2023-03-21T02:51:22;8.60;99.90
52058;DHT22;38063;53.210;6.504;2023-03-21T02:53:55;8.60;99.90
52058;DHT22;38063;53.210;6.504;2023-03-21T02:56:23;8.60;99.90
52058;DHT22;38063;53.210;6.504;2023-03-21T02:58:51;8.60;99.90
52058;DHT22;38063;53.210;6.504;2023-03-21T03:01:17;8.60;99.90
52058;DHT22;38063;53.210;6.504;2023-03-21T03:03:43;8.70;99.90
52058;DHT22;38063;53.210;6.504;2023-03-21T03:06:19;8.70;99.90
52058;DHT22;38063;53.210;6.504;2023-03-21T03:11:31;8.70;99.90
52058;DHT22;38063;53.210;6.504;2023-03-21T03:16:58;8.70;99.90
52058;DHT22;38063;53.210;6.504;2023-03-21T03:19:31;8.70;99.90
52058;DHT22;38063;53.210;6.504;2023-03-21T03:22:11;8.80;99.90
52058;DHT22;38063;53.210;6.504;2023-03-21T03:24:45;8.80;99.90
52058;DHT22;38063;53.210;6.504;2023-03-21T03:27:21;8.70;99.90
52058;DHT22;38063;53.210;6.504;2023-03-21T03:29:48;8.70;99.90
52058;DHT22;38063;53.210;6.504;2023-03-21T03:32:21;9.10;99.90
52058;DHT22;38063;53.210;6.504;2023-03-21T03:34:53;8.70;99.90
52058;DHT22;38063;53.210;6.504;2023-03-21T03:37:23;8.70;99.90
52058;DHT22;38063;53.210;6.504;2023-03-21T03:42:28;8.70;99.90
52058;DHT22;38063;53.210;6.504;2023-03-21T03:44:55;8.70;99.90
52058;DHT22;38063;53.210;6.504;2023-03-21T03:47:27;8.70;99.90
52058;DHT22;38063;53.210;6.504;2023-03-21T03:52:58;8.70;99.90
52058;DHT22;38063;53.210;6.504;2023-03-21T03:55:27;8.70;99.90
52058;DHT22;38063;53.210;6.504;2023-03-21T03:58:00;9.70;99.90
52058;DHT22;38063;53.210;6.504;2023-03-21T04:00:27;8.70;99.90
52058;DHT22;38063;53.210;6.504;2023-03-21T04:02:56;8.70;99.90
52058;DHT22;38063;53.210;6.504;2023-03-21T04:05:23;8.70;99.90
52058;DHT22;38063;53.210;6.504;2023-03-21T04:07:49;8.70;99.90
52058;DHT22;38063;53.210;6.504;2023-03-21T04:10:16;8.70;99.90
52058;DHT22;38063;53.210;6.504;2023-03-21T04:12:42;8.70;99.90
52058;DHT22;38063;53.210;6.504;2023-03-21T04:15:08;8.70;99.90
52058;DHT22;38063;53.210;6.504;2023-03-21T04:17:34;8.70;99.90
52058;DHT22;38063;53.210;6.504;2023-03-21T04:19:59;8.70;99.90
52058;DHT22;38063;53.210;6.504;2023-03-21T04:22:25;8.70;99.90
52058;DHT22;38063;53.210;6.504;2023-03-21T04:24:51;8.70;99.90
52058;DHT22;38063;53.210;6.504;2023-03-21T04:27:17;8.70;99.90
52058;DHT22;38063;53.210;6.504;2023-03-21T04:29:43;8.70;99.90
52058;DHT22;38063;53.210;6.504;2023-03-21T04:32:09;8.70;99.90
52058;DHT22;38063;53.210;6.504;2023-03-21T04:34:42;8.70;99.90
52058;DHT22;38063;53.210;6.504;2023-03-21T04:37:09;8.70;99.90
52058;DHT22;38063;53.210;6.504;2023-03-21T04:39:37;8.70;99.90
52058;DHT22;38063;53.210;6.504;2023-03-21T04:42:04;8.80;99.90
52058;DHT22;38063;53.210;6.504;2023-03-21T04:44:29;8.70;99.90
52058;DHT22;38063;53.210;6.504;2023-03-21T04:46:55;8.70;99.90
52058;DHT22;38063;53.210;6.504;2023-03-21T04:49:21;8.90;99.90
52058;DHT22;38063;53.210;6.504;2023-03-21T04:51:46;8.80;99.90
52058;DHT22;38063;53.210;6.504;2023-03-21T04:54:12;8.70;99.90
52058;DHT22;38063;53.210;6.504;2023-03-21T04:56:38;8.90;99.90
52058;DHT22;38063;53.210;6.504;2023-03-21T04:59:12;8.80;99.90
52058;DHT22;38063;53.210;6.504;2023-03-21T05:01:38;8.80;99.90
52058;DHT22;38063;53.210;6.504;2023-03-21T05:04:09;8.80;99.90
52058;DHT22;38063;53.210;6.504;2023-03-21T05:06:35;8.80;99.90
52058;DHT22;38063;53.210;6.504;2023-03-21T05:09:02;8.70;99.90
52058;DHT22;38063;53.210;6.504;2023-03-21T05:11:33;8.80;99.90
52058;DHT22;38063;53.210;6.504;2023-03-21T05:14:02;8.70;99.90
52058;DHT22;38063;53.210;6.504;2023-03-21T05:16:27;8.80;99.90
52058;DHT22;38063;53.210;6.504;2023-03-21T05:18:58;8.70;99.90
52058;DHT22;38063;53.210;6.504;2023-03-21T05:21:28;8.80;99.90
52058;DHT22;38063;53.210;6.504;2023-03-21T05:23:54;8.70;99.90
52058;DHT22;38063;53.210;6.504;2023-03-21T05:26:23;8.80;99.90
52058;DHT22;38063;53.210;6.504;2023-03-21T05:28:49;8.80;99.90
52058;DHT22;38063;53.210;6.504;2023-03-21T05:31:19;9.00;99.90
52058;DHT22;38063;53.210;6.504;2023-03-21T05:33:45;8.80;99.90
52058;DHT22;38063;53.210;6.504;2023-03-21T05:36:12;8.80;99.90
52058;DHT22;38063;53.210;6.504;2023-03-21T05:38:38;8.80;99.90
52058;DHT22;38063;53.210;6.504;2023-03-21T05:41:13;8.80;99.90
52058;DHT22;38063;53.210;6.504;2023-03-21T05:43:40;8.80;99.90
52058;DHT22;38063;53.210;6.504;2023-03-21T05:46:06;8.80;99.90
52058;DHT22;38063;53.210;6.504;2023-03-21T05:48:31;8.80;99.90
52058;DHT22;38063;53.210;6.504;2023-03-21T05:50:57;9.20;99.90
52058;DHT22;38063;53.210;6.504;2023-03-21T05:53:23;8.80;99.90
52058;DHT22;38063;53.210;6.504;2023-03-21T05:55:48;8.80;99.90
52058;DHT22;38063;53.210;6.504;2023-03-21T05:58:14;8.80;99.90
52058;DHT22;38063;53.210;6.504;2023-03-21T06:00:40;8.80;99.90
52058;DHT22;38063;53.210;6.504;2023-03-21T06:03:06;8.80;99.90
52058;DHT22;38063;53.210;6.504;2023-03-21T06:05:31;8.80;99.90
52058;DHT22;38063;53.210;6.504;2023-03-21T06:07:57;8.80;99.90
52058;DHT22;38063;53.210;6.504;2023-03-21T06:10:23;9.00;99.90
52058;DHT22;38063;53.210;6.504;2023-03-21T06:12:48;8.80;99.90
52058;DHT22;38063;53.210;6.504;2023-03-21T06:15:14;8.80;99.90
52058;DHT22;38063;53.210;6.504;2023-03-21T06:17:40;8.80;99.90
52058;DHT22;38063;53.210;6.504;2023-03-21T06:20:07;8.80;99.90
52058;DHT22;38063;53.210;6.504;2023-03-21T06:22:33;8.80;99.90
52058;DHT22;38063;53.210;6.504;2023-03-21T06:24:59;8.80;99.90
52058;DHT22;38063;53.210;6.504;2023-03-21T06:27:25;8.80;99.90
52058;DHT22;38063;53.210;6.504;2023-03-21T06:29:51;8.80;99.90
52058;DHT22;38063;53.210;6.504;2023-03-21T06:32:17;8.90;99.90
52058;DHT22;38063;53.210;6.504;2023-03-21T06:34:43;9.00;99.90
52058;DHT22;38063;53.210;6.504;2023-03-21T06:37:09;8.90;99.90
52058;DHT22;38063;53.210;6.504;2023-03-21T06:39:34;8.90;99.90
52058;DHT22;38063;53.210;6.504;2023-03-21T06:42:00;8.90;99.90
52058;DHT22;38063;53.210;6.504;2023-03-21T06:44:26;8.90;99.90
52058;DHT22;38063;53.210;6.504;2023-03-21T06:46:52;9.00;99.90
52058;DHT22;38063;53.210;6.504;2023-03-21T06:49:18;8.90;99.90
52058;DHT22;38063;53.210;6.504;2023-03-21T06:51:44;9.00;99.90
52058;DHT22;38063;53.210;6.504;2023-03-21T06:54:10;8.90;99.90
52058;DHT22;38063;53.210;6.504;2023-03-21T06:56:36;9.00;99.90
52058;DHT22;38063;53.210;6.504;2023-03-21T06:59:02;9.00;99.90
52058;DHT22;38063;53.210;6.504;2023-03-21T07:01:28;9.00;99.90
52058;DHT22;38063;53.210;6.504;2023-03-21T07:03:55;9.00;99.90
52058;DHT22;38063;53.210;6.504;2023-03-21T07:06:23;9.00;99.90
52058;DHT22;38063;53.210;6.504;2023-03-21T07:08:51;9.10;99.90
52058;DHT22;38063;53.210;6.504;2023-03-21T07:11:17;9.10;99.90
52058;DHT22;38063;53.210;6.504;2023-03-21T07:13:43;9.30;99.90
52058;DHT22;38063;53.210;6.504;2023-03-21T07:16:09;9.10;99.90
52058;DHT22;38063;53.210;6.504;2023-03-21T07:18:35;9.20;99.90
52058;DHT22;38063;53.210;6.504;2023-03-21T07:21:01;9.10;99.90
52058;DHT22;38063;53.210;6.504;2023-03-21T07:23:27;9.80;99.90
52058;DHT22;38063;53.210;6.504;2023-03-21T07:25:53;9.10;99.90
52058;DHT22;38063;53.210;6.504;2023-03-21T07:28:20;9.10;99.90
52058;DHT22;38063;53.210;6.504;2023-03-21T07:30:53;9.10;99.90
52058;DHT22;38063;53.210;6.504;2023-03-21T07:33:19;9.10;99.90
52058;DHT22;38063;53.210;6.504;2023-03-21T07:35:45;9.20;99.90
52058;DHT22;38063;53.210;6.504;2023-03-21T07:38:10;9.20;99.90
52058;DHT22;38063;53.210;6.504;2023-03-21T07:40:36;9.20;99.90
52058;DHT22;38063;53.210;6.504;2023-03-21T07:43:02;9.20;99.90
52058;DHT22;38063;53.210;6.504;2023-03-21T07:45:27;9.20;99.90
52058;DHT22;38063;53.210;6.504;2023-03-21T07:47:53;9.20;99.90
52058;DHT22;38063;53.210;6.504;2023-03-21T07:50:19;9.30;99.90
52058;DHT22;38063;53.210;6.504;2023-03-21T07:52:46;9.40;99.90
52058;DHT22;38063;53.210;6.504;2023-03-21T07:55:12;9.20;99.90
52058;DHT22;38063;53.210;6.504;2023-03-21T07:57:37;9.20;99.90
52058;DHT22;38063;53.210;6.504;2023-03-21T08:00:04;9.20;99.90
52058;DHT22;38063;53.210;6.504;2023-03-21T08:02:31;9.30;99.90
52058;DHT22;38063;53.210;6.504;2023-03-21T08:04:57;9.30;99.90
52058;DHT22;38063;53.210;6.504;2023-03-21T08:07:23;9.30;99.90
52058;DHT22;38063;53.210;6.504;2023-03-21T08:09:49;9.30;99.90
52058;DHT22;38063;53.210;6.504;2023-03-21T08:12:14;9.30;99.90
52058;DHT22;38063;53.210;6.504;2023-03-21T08:14:41;9.50;99.90
52058;DHT22;38063;53.210;6.504;2023-03-21T08:17:07;9.30;99.90
52058;DHT22;38063;53.210;6.504;2023-03-21T08:19:34;9.30;99.90
52058;DHT22;38063;53.210;6.504;2023-03-21T08:22:00;9.30;99.90
52058;DHT22;38063;53.210;6.504;2023-03-21T08:24:27;9.30;99.90
52058;DHT22;38063;53.210;6.504;2023-03-21T08:26:53;9.30;99.90
52058;DHT22;38063;53.210;6.504;2023-03-21T08:29:19;9.70;99.90
52058;DHT22;38063;53.210;6.504;2023-03-21T08:31:46;9.40;99.90
52058;DHT22;38063;53.210;6.504;2023-03-21T08:34:12;9.40;99.90
52058;DHT22;38063;53.210;6.504;2023-03-21T08:36:38;9.40;99.90
52058;DHT22;38063;53.210;6.504;2023-03-21T08:39:05;9.30;99.90
52058;DHT22;38063;53.210;6.504;2023-03-21T08:41:32;9.40;99.90
52058;DHT22;38063;53.210;6.504;2023-03-21T08:43:57;9.40;99.90
52058;DHT22;38063;53.210;6.504;2023-03-21T08:46:23;9.40;99.90
52058;DHT22;38063;53.210;6.504;2023-03-21T08:48:49;9.40;99.90
52058;DHT22;38063;53.210;6.504;2023-03-21T08:51:14;9.40;99.90
52058;DHT22;38063;53.210;6.504;2023-03-21T08:53:40;9.50;99.90
52058;DHT22;38063;53.210;6.504;2023-03-21T08:56:06;9.40;99.90
52058;DHT22;38063;53.210;6.504;2023-03-21T08:58:32;9.40;99.90
52058;DHT22;38063;53.210;6.504;2023-03-21T09:00:58;9.40;99.90
52058;DHT22;38063;53.210;6.504;2023-03-21T09:03:23;9.50;99.90
52058;DHT22;38063;53.210;6.504;2023-03-21T09:05:54;9.40;99.90
52058;DHT22;38063;53.210;6.504;2023-03-21T09:08:20;9.50;99.90
52058;DHT22;38063;53.210;6.504;2023-03-21T09:10:57;9.40;99.90
52058;DHT22;38063;53.210;6.504;2023-03-21T09:13:23;9.40;99.90
52058;DHT22;38063;53.210;6.504;2023-03-21T09:15:49;9.40;99.90
52058;DHT22;38063;53.210;6.504;2023-03-21T09:18:15;9.40;99.90
52058;DHT22;38063;53.210;6.504;2023-03-21T09:20:46;9.40;99.90
52058;DHT22;38063;53.210;6.504;2023-03-21T09:23:13;9.60;99.90
52058;DHT22;38063;53.210;6.504;2023-03-21T09:25:40;9.40;99.90
52058;DHT22;38063;53.210;6.504;2023-03-21T09:28:07;9.40;99.90
52058;DHT22;38063;53.210;6.504;2023-03-21T09:30:34;9.40;99.90
52058;DHT22;38063;53.210;6.504;2023-03-21T09:33:03;9.40;99.90
52058;DHT22;38063;53.210;6.504;2023-03-21T09:35:31;9.40;99.90
52058;DHT22;38063;53.210;6.504;2023-03-21T09:37:57;9.40;99.90
52058;DHT22;38063;53.210;6.504;2023-03-21T09:41:04;9.50;99.90
52058;DHT22;38063;53.210;6.504;2023-03-21T09:46:47;9.50;99.90
52058;DHT22;38063;53.210;6.504;2023-03-21T09:49:22;9.50;99.90
52058;DHT22;38063;53.210;6.504;2023-03-21T09:51:51;9.50;99.90
52058;DHT22;38063;53.210;6.504;2023-03-21T09:54:30;9.50;99.90
52058;DHT22;38063;53.210;6.504;2023-03-21T09:57:03;9.50;99.90
52058;DHT22;38063;53.210;6.504;2023-03-21T09:59:35;9.50;99.90
52058;DHT22;38063;53.210;6.504;2023-03-21T10:04:45;9.50;99.90
52058;DHT22;38063;53.210;6.504;2023-03-21T10:07:12;9.50;99.90
52058;DHT22;38063;53.210;6.504;2023-03-21T10:09:44;9.50;99.90
52058;DHT22;38063;53.210;6.504;2023-03-21T10:12:20;9.80;99.90
52058;DHT22;38063;53.210;6.504;2023-03-21T10:14:51;9.90;99.90
52058;DHT22;38063;53.210;6.504;2023-03-21T10:17:34;9.50;99.90
52058;DHT22;38063;53.210;6.504;2023-03-21T10:22:44;9.50;99.90
52058;DHT22;38063;53.210;6.504;2023-03-21T10:25:36;9.50;99.90
52058;DHT22;38063;53.210;6.504;2023-03-21T10:28:06;9.50;99.90
52058;DHT22;38063;53.210;6.504;2023-03-21T10:31:01;9.50;99.90
52058;DHT22;38063;53.210;6.504;2023-03-21T10:33:31;9.50;99.90
52058;DHT22;38063;53.210;6.504;2023-03-21T10:35:59;9.50;99.90
52058;DHT22;38063;53.210;6.504;2023-03-21T10:38:26;9.60;99.90
52058;DHT22;38063;53.210;6.504;2023-03-21T10:40:53;9.50;99.90
52058;DHT22;38063;53.210;6.504;2023-03-21T10:43:35;9.80;99.90
52058;DHT22;38063;53.210;6.504;2023-03-21T10:46:08;9.70;99.90
52058;DHT22;38063;53.210;6.504;2023-03-21T10:48:37;9.70;99.90
52058;DHT22;38063;53.210;6.504;2023-03-21T10:51:07;9.70;99.90
52058;DHT22;38063;53.210;6.504;2023-03-21T10:53:47;9.80;99.90
52058;DHT22;38063;53.210;6.504;2023-03-21T10:56:15;9.80;99.90
52058;DHT22;38063;53.210;6.504;2023-03-21T10:58:44;9.90;99.90
52058;DHT22;38063;53.210;6.504;2023-03-21T11:01:22;10.00;99.90
52058;DHT22;38063;53.210;6.504;2023-03-21T11:03:55;10.00;99.90
52058;DHT22;38063;53.210;6.504;2023-03-21T11:06:30;10.10;99.90
52058;DHT22;38063;53.210;6.504;2023-03-21T11:09:18;10.20;99.90
52058;DHT22;38063;53.210;6.504;2023-03-21T11:14:25;10.30;99.90
52058;DHT22;38063;53.210;6.504;2023-03-21T11:16:51;10.40;99.90
52058;DHT22;38063;53.210;6.504;2023-03-21T11:19:19;10.50;99.90
52058;DHT22;38063;53.210;6.504;2023-03-21T11:21:50;10.60;99.90
52058;DHT22;38063;53.210;6.504;2023-03-21T11:24:17;10.60;99.90
52058;DHT22;38063;53.210;6.504;2023-03-21T11:26:45;10.80;99.90
52058;DHT22;38063;53.210;6.504;2023-03-21T11:29:51;10.70;99.90
52058;DHT22;38063;53.210;6.504;2023-03-21T11:32:34;10.90;99.90
52058;DHT22;38063;53.210;6.504;2023-03-21T11:35:06;10.90;99.90
52058;DHT22;38063;53.210;6.504;2023-03-21T11:37:42;11.00;99.90
52058;DHT22;38063;53.210;6.504;2023-03-21T11:40:32;11.00;99.90
52058;DHT22;38063;53.210;6.504;2023-03-21T11:43:42;11.10;99.90
52058;DHT22;38063;53.210;6.504;2023-03-21T11:48:38;11.10;99.90
52058;DHT22;38063;53.210;6.504;2023-03-21T11:51:14;11.10;99.90
52058;DHT22;38063;53.210;6.504;2023-03-21T11:53:55;11.00;99.90
52058;DHT22;38063;53.210;6.504;2023-03-21T11:56:34;11.10;99.90
52058;DHT22;38063;53.210;6.504;2023-03-21T12:05:10;11.40;99.90
52058;DHT22;38063;53.210;6.504;2023-03-21T12:10:36;11.30;99.90
52058;DHT22;38063;53.210;6.504;2023-03-21T12:24:18;11.30;99.90
52058;DHT22;38063;53.210;6.504;2023-03-21T12:27:24;11.20;99.90
52058;DHT22;38063;53.210;6.504;2023-03-21T12:30:19;11.20;99.90
52058;DHT22;38063;53.210;6.504;2023-03-21T12:35:36;11.10;99.90
52058;DHT22;38063;53.210;6.504;2023-03-21T12:38:31;11.00;99.90
52058;DHT22;38063;53.210;6.504;2023-03-21T12:42:18;11.00;99.90
52058;DHT22;38063;53.210;6.504;2023-03-21T12:44:15;11.00;99.90
52058;DHT22;38063;53.210;6.504;2023-03-21T12:46:46;11.00;99.90
52058;DHT22;38063;53.210;6.504;2023-03-21T12:49:47;11.00;99.90
52058;DHT22;38063;53.210;6.504;2023-03-21T12:52:22;11.00;99.90
52058;DHT22;38063;53.210;6.504;2023-03-21T12:57:20;11.20;99.90
52058;DHT22;38063;53.210;6.504;2023-03-21T12:59:54;11.10;99.90
52058;DHT22;38063;53.210;6.504;2023-03-21T13:02:39;11.20;99.90
52058;DHT22;38063;53.210;6.504;2023-03-21T13:07:52;11.20;99.90
52058;DHT22;38063;53.210;6.504;2023-03-21T13:10:20;11.30;99.90
52058;DHT22;38063;53.210;6.504;2023-03-21T13:16:05;11.40;99.90
52058;DHT22;38063;53.210;6.504;2023-03-21T13:24:22;11.60;99.90
52058;DHT22;38063;53.210;6.504;2023-03-21T13:27:11;11.70;99.90
52058;DHT22;38063;53.210;6.504;2023-03-21T13:29:50;11.80;99.90
52058;DHT22;38063;53.210;6.504;2023-03-21T13:34:54;12.10;99.90
52058;DHT22;38063;53.210;6.504;2023-03-21T13:37:21;12.20;99.90
52058;DHT22;38063;53.210;6.504;2023-03-21T13:39:48;12.10;99.90
52058;DHT22;38063;53.210;6.504;2023-03-21T13:42:21;12.10;99.90
52058;DHT22;38063;53.210;6.504;2023-03-21T13:44:52;12.20;99.90
52058;DHT22;38063;53.210;6.504;2023-03-21T13:52:43;12.00;99.90
52058;DHT22;38063;53.210;6.504;2023-03-21T13:55:39;11.90;99.90
52058;DHT22;38063;53.210;6.504;2023-03-21T14:04:11;11.90;99.90
52058;DHT22;38063;53.210;6.504;2023-03-21T14:07:00;11.90;99.90
52058;DHT22;38063;53.210;6.504;2023-03-21T14:09:58;11.80;99.90
52058;DHT22;38063;53.210;6.504;2023-03-21T14:12:36;11.80;99.90
52058;DHT22;38063;53.210;6.504;2023-03-21T14:15:18;11.70;99.90
52058;DHT22;38063;53.210;6.504;2023-03-21T14:17:54;11.90;99.90
52058;DHT22;38063;53.210;6.504;2023-03-21T14:20:31;12.00;99.90
52058;DHT22;38063;53.210;6.504;2023-03-21T14:22:57;12.20;99.90
52058;DHT22;38063;53.210;6.504;2023-03-21T14:25:25;12.40;99.90
52058;DHT22;38063;53.210;6.504;2023-03-21T14:27:58;12.70;99.90
52058;DHT22;38063;53.210;6.504;2023-03-21T14:30:32;12.80;99.90
52058;DHT22;38063;53.210;6.504;2023-03-21T14:33:27;12.90;99.90
52058;DHT22;38063;53.210;6.504;2023-03-21T14:36:02;12.90;99.90
52058;DHT22;38063;53.210;6.504;2023-03-21T14:38:34;12.80;99.90
52058;DHT22;38063;53.210;6.504;2023-03-21T14:41:01;12.70;99.90
52058;DHT22;38063;53.210;6.504;2023-03-21T14:43:28;12.60;99.90
52058;DHT22;38063;53.210;6.504;2023-03-21T14:45:56;12.60;99.90
52058;DHT22;38063;53.210;6.504;2023-03-21T14:48:42;12.50;99.90
52058;DHT22;38063;53.210;6.504;2023-03-21T14:51:09;12.50;99.90
52058;DHT22;38063;53.210;6.504;2023-03-21T14:53:40;12.60;99.90
52058;DHT22;38063;53.210;6.504;2023-03-21T14:56:20;12.60;99.90
52058;DHT22;38063;53.210;6.504;2023-03-21T14:58:47;12.70;99.90
52058;DHT22;38063;53.210;6.504;2023-03-21T15:01:16;12.70;99.90
52058;DHT22;38063;53.210;6.504;2023-03-21T15:03:46;12.70;99.90
52058;DHT22;38063;53.210;6.504;2023-03-21T15:06:14;12.70;99.90
52058;DHT22;38063;53.210;6.504;2023-03-21T15:08:56;12.70;99.90
52058;DHT22;38063;53.210;6.504;2023-03-21T15:11:34;12.70;99.90
52058;DHT22;38063;53.210;6.504;2023-03-21T15:14:06;12.60;99.90
52058;DHT22;38063;53.210;6.504;2023-03-21T15:16:33;12.60;99.90
52058;DHT22;38063;53.210;6.504;2023-03-21T15:19:00;12.50;99.90
52058;DHT22;38063;53.210;6.504;2023-03-21T15:21:47;12.40;99.90
52058;DHT22;38063;53.210;6.504;2023-03-21T15:24:19;12.30;99.90
52058;DHT22;38063;53.210;6.504;2023-03-21T15:26:48;12.20;99.90
52058;DHT22;38063;53.210;6.504;2023-03-21T15:29:15;12.20;99.90
52058;DHT22;38063;53.210;6.504;2023-03-21T15:31:42;12.20;99.90
52058;DHT22;38063;53.210;6.504;2023-03-21T15:34:21;12.20;99.90
52058;DHT22;38063;53.210;6.504;2023-03-21T15:36:48;12.10;99.90
52058;DHT22;38063;53.210;6.504;2023-03-21T15:39:19;12.10;99.90
52058;DHT22;38063;53.210;6.504;2023-03-21T15:42:00;12.10;99.90
52058;DHT22;38063;53.210;6.504;2023-03-21T15:44:27;12.10;99.90
52058;DHT22;38063;53.210;6.504;2023-03-21T15:46:53;12.00;99.90
52058;DHT22;38063;53.210;6.504;2023-03-21T15:49:30;12.00;99.90
52058;DHT22;38063;53.210;6.504;2023-03-21T15:52:14;12.00;99.90
52058;DHT22;38063;53.210;6.504;2023-03-21T15:54:45;12.00;99.90
52058;DHT22;38063;53.210;6.504;2023-03-21T15:57:28;12.00;99.90
52058;DHT22;38063;53.210;6.504;2023-03-21T16:00:30;11.90;99.90
52058;DHT22;38063;53.210;6.504;2023-03-21T16:03:08;11.90;99.90
52058;DHT22;38063;53.210;6.504;2023-03-21T16:05:34;11.90;99.90
52058;DHT22;38063;53.210;6.504;2023-03-21T16:08:04;11.80;99.90
52058;DHT22;38063;53.210;6.504;2023-03-21T16:10:36;11.90;99.90
52058;DHT22;38063;53.210;6.504;2023-03-21T16:13:03;11.80;99.90
52058;DHT22;38063;53.210;6.504;2023-03-21T16:15:29;11.80;99.90
52058;DHT22;38063;53.210;6.504;2023-03-21T16:18:00;11.80;99.90
52058;DHT22;38063;53.210;6.504;2023-03-21T16:20:30;11.80;99.90
52058;DHT22;38063;53.210;6.504;2023-03-21T16:22:57;11.70;99.90
52058;DHT22;38063;53.210;6.504;2023-03-21T16:25:23;11.80;99.90
52058;DHT22;38063;53.210;6.504;2023-03-21T16:27:49;11.70;99.90
52058;DHT22;38063;53.210;6.504;2023-03-21T16:30:18;11.70;99.90
52058;DHT22;38063;53.210;6.504;2023-03-21T16:32:44;11.60;99.90
52058;DHT22;38063;53.210;6.504;2023-03-21T16:35:10;11.60;99.90
52058;DHT22;38063;53.210;6.504;2023-03-21T16:37:36;11.60;99.90
52058;DHT22;38063;53.210;6.504;2023-03-21T16:40:03;11.50;99.90
52058;DHT22;38063;53.210;6.504;2023-03-21T16:42:30;11.40;99.90
52058;DHT22;38063;53.210;6.504;2023-03-21T16:44:56;11.30;99.90
52058;DHT22;38063;53.210;6.504;2023-03-21T16:47:21;11.20;99.90
52058;DHT22;38063;53.210;6.504;2023-03-21T16:49:48;11.10;99.90
52058;DHT22;38063;53.210;6.504;2023-03-21T16:52:14;10.90;99.90
52058;DHT22;38063;53.210;6.504;2023-03-21T16:54:41;10.90;99.90
52058;DHT22;38063;53.210;6.504;2023-03-21T16:57:15;10.80;99.90
52058;DHT22;38063;53.210;6.504;2023-03-21T16:59:43;10.70;99.90
52058;DHT22;38063;53.210;6.504;2023-03-21T17:02:13;10.60;99.90
52058;DHT22;38063;53.210;6.504;2023-03-21T17:04:41;10.60;99.90
52058;DHT22;38063;53.210;6.504;2023-03-21T17:07:09;10.50;99.90
52058;DHT22;38063;53.210;6.504;2023-03-21T17:09:38;10.50;99.90
52058;DHT22;38063;53.210;6.504;2023-03-21T17:12:11;10.50;99.90
52058;DHT22;38063;53.210;6.504;2023-03-21T17:14:42;10.50;99.90
52058;DHT22;38063;53.210;6.504;2023-03-21T17:17:13;10.40;99.90
52058;DHT22;38063;53.210;6.504;2023-03-21T17:19:39;10.40;99.90
52058;DHT22;38063;53.210;6.504;2023-03-21T17:22:06;10.80;99.90
52058;DHT22;38063;53.210;6.504;2023-03-21T17:24:32;10.50;99.90
52058;DHT22;38063;53.210;6.504;2023-03-21T17:26:59;10.50;99.90
52058;DHT22;38063;53.210;6.504;2023-03-21T17:29:25;10.40;99.90
52058;DHT22;38063;53.210;6.504;2023-03-21T17:31:52;10.50;99.90
52058;DHT22;38063;53.210;6.504;2023-03-21T17:34:18;10.40;99.90
52058;DHT22;38063;53.210;6.504;2023-03-21T17:36:45;10.50;99.90
52058;DHT22;38063;53.210;6.504;2023-03-21T17:39:23;10.30;99.90